Time;durP1;ratioP1;P1;durP2;ratioP2;P2;SDS_P1;SDS_P2;PMS_P1;PMS_P2;Temp;Humidity;BMP_temperature;BMP_pressure;BME280_temperature;BME280_humidity;BME280_pressure;Samples;Min_cycle;Max_cycle;Signal;HPM_P1;HPM_P2
2022/12/18 00:00:25;;;;;;;90.67;24.77;;;;;;;-6.99;100.00;96849.69;1031230;28;20077;-72
2022/12/18 00:00:56;;;;;;;82.10;27.10;;;;;;;-6.97;100.00;96851.19;1030762;28;20037;-71
2022/12/18 00:01:36;;;;;;;78.00;26.70;;;;;;;-6.97;100.00;96843.53;1031406;28;20353;-71
2022/12/18 00:02:07;;;;;;;92.47;27.48;;;;;;;-6.98;100.00;96847.00;1036677;28;20561;-72
2022/12/18 00:02:37;;;;;;;79.37;24.43;;;;;;;-6.95;100.00;96858.69;1039088;28;20061;-72
2022/12/18 00:03:08;;;;;;;79.80;26.67;;;;;;;-6.96;100.00;96855.34;1039333;28;20045;-71
2022/12/18 00:03:38;;;;;;;76.00;22.77;;;;;;;-7.03;100.00;96849.13;1035304;28;20017;-72
2022/12/18 00:04:18;;;;;;;89.83;28.17;;;;;;;-7.01;100.00;96856.63;1027046;28;20559;-71
2022/12/18 00:04:49;;;;;;;81.68;27.13;;;;;;;-6.96;100.00;96864.75;1035232;28;20568;-72
2022/12/18 00:05:19;;;;;;;86.23;27.83;;;;;;;-6.96;100.00;96865.53;1031044;28;20056;-71
2022/12/18 00:05:50;;;;;;;81.03;28.67;;;;;;;-6.93;100.00;96870.41;1031896;28;20534;-72
2022/12/18 00:06:21;;;;;;;84.70;27.57;;;;;;;-6.91;100.00;96866.00;1031102;28;20065;-72
2022/12/18 00:06:51;;;;;;;83.53;27.50;;;;;;;-7.24;100.00;96821.09;1031302;28;20033;-71
2022/12/18 00:07:22;;;;;;;94.53;25.73;;;;;;;-6.93;100.00;96872.94;1031337;28;20026;-71
2022/12/18 00:07:52;;;;;;;80.87;24.03;;;;;;;-6.94;100.00;96876.44;1035065;28;20786;-72
2022/12/18 00:08:23;;;;;;;85.57;24.23;;;;;;;-6.96;100.00;96878.28;1039196;28;20025;-71
2022/12/18 00:08:54;;;;;;;81.40;27.37;;;;;;;-6.92;100.00;96882.22;1039508;28;20021;-72
2022/12/18 00:09:25;;;;;;;87.20;27.20;;;;;;;-6.88;100.00;96878.47;1034410;28;20049;-72
2022/12/18 00:09:55;;;;;;;86.10;27.47;;;;;;;-6.87;100.00;96874.19;1035270;28;20041;-72
2022/12/18 00:10:27;;;;;;;96.03;28.97;;;;;;;-6.91;100.00;96868.53;1027165;28;20545;-72
2022/12/18 00:11:04;;;;;;;86.88;28.02;;;;;;;-6.93;100.00;96872.94;1019515;28;20070;-72
2022/12/18 00:11:34;;;;;;;80.80;26.48;;;;;;;-6.88;100.00;96873.38;1027145;28;20033;-72
2022/12/18 00:12:05;;;;;;;88.80;26.93;;;;;;;-6.85;100.00;96881.72;1028174;28;20081;-71
2022/12/18 00:12:35;;;;;;;85.67;28.77;;;;;;;-6.88;100.00;96875.91;1032197;28;20029;-71
2022/12/18 00:13:06;;;;;;;89.13;30.10;;;;;;;-6.85;100.00;96877.41;1034955;28;20577;-72
2022/12/18 00:13:36;;;;;;;98.50;29.57;;;;;;;-6.83;100.00;96874.75;1030844;28;20037;-72
2022/12/18 00:14:06;;;;;;;80.43;29.03;;;;;;;-6.81;100.00;96877.97;1027394;28;20019;-73
2022/12/18 00:14:37;;;;;;;87.57;27.60;;;;;;;-6.84;100.00;96870.56;1028315;28;20022;-72
2022/12/18 00:15:08;;;;;;;79.23;27.00;;;;;;;-6.76;100.00;96876.66;1022966;29;20023;-71
2022/12/18 00:15:38;;;;;;;80.93;26.53;;;;;;;-6.75;100.00;96877.47;1019117;28;20028;-73
2022/12/18 00:16:10;;;;;;;84.07;27.20;;;;;;;-6.74;100.00;96874.81;1022861;28;20572;-71
2022/12/18 00:16:43;;;;;;;78.13;26.70;;;;;;;-6.75;100.00;96877.47;1027328;28;20552;-72
2022/12/18 00:17:14;;;;;;;87.82;27.90;;;;;;;-6.77;100.00;96877.59;1023028;29;20564;-72
2022/12/18 00:17:44;;;;;;;84.53;27.13;;;;;;;-6.79;100.00;96873.56;1022959;29;20127;-71
2022/12/18 00:18:15;;;;;;;79.00;26.47;;;;;;;-6.74;100.00;96884.19;1023171;29;20024;-72
2022/12/18 00:18:46;;;;;;;76.33;23.77;;;;;;;-6.78;100.00;96882.81;1027174;28;20027;-72
2022/12/18 00:19:16;;;;;;;79.90;24.50;;;;;;;-6.78;100.00;96877.72;1027102;28;20552;-72
2022/12/18 00:19:46;;;;;;;84.20;26.00;;;;;;;-6.80;100.00;96877.06;1027255;28;20760;-72
2022/12/18 00:20:23;;;;;;;71.10;24.33;;;;;;;-6.78;100.00;96882.81;1031007;28;20022;-71
2022/12/18 00:20:53;;;;;;;81.32;24.27;;;;;;;-6.79;100.00;96876.09;1030490;28;20022;-71
2022/12/18 00:21:24;;;;;;;76.77;24.83;;;;;;;-6.82;100.00;96866.97;1031692;28;20388;-72
2022/12/18 00:21:54;;;;;;;73.93;24.73;;;;;;;-6.75;100.00;96872.38;1023021;29;20012;-72
2022/12/18 00:22:25;;;;;;;82.77;26.80;;;;;;;-6.77;100.00;96871.66;1019424;29;20438;-72
2022/12/18 00:22:55;;;;;;;75.17;25.97;;;;;;;-6.75;100.00;96869.81;1023018;29;20015;-72
2022/12/18 00:23:26;;;;;;;80.30;25.03;;;;;;;-6.74;100.00;96863.75;1027127;28;20026;-72
2022/12/18 00:23:57;;;;;;;86.57;25.30;;;;;;;-6.75;100.00;96872.38;1027049;28;20524;-71
2022/12/18 00:24:27;;;;;;;90.43;25.13;;;;;;;-6.80;100.00;96866.84;1026928;28;20022;-71
2022/12/18 00:24:58;;;;;;;77.33;24.03;;;;;;;-6.83;100.00;96865.34;1030251;28;20037;-71
2022/12/18 00:25:28;;;;;;;84.03;25.47;;;;;;;-6.82;100.00;96868.72;1034435;28;20044;-71
2022/12/18 00:26:03;;;;;;;78.30;27.23;;;;;;;-6.94;100.00;96853.47;1034848;28;20030;-72
2022/12/18 00:26:34;;;;;;;75.88;25.40;;;;;;;-6.83;100.00;96874.75;1032273;28;20014;-72
2022/12/18 00:27:04;;;;;;;76.40;26.43;;;;;;;-6.83;100.00;96869.66;1031796;28;20607;-72
2022/12/18 00:27:35;;;;;;;83.00;27.10;;;;;;;-6.81;100.00;96870.31;1031105;28;20034;-72
2022/12/18 00:28:05;;;;;;;91.50;26.33;;;;;;;-6.83;100.00;96877.31;1027359;28;20460;-72
2022/12/18 00:28:36;;;;;;;88.50;26.97;;;;;;;-6.90;100.00;96872.69;1035074;28;20037;-72
2022/12/18 00:29:09;;;;;;;87.57;26.27;;;;;;;-6.83;100.00;96874.75;1035385;28;20018;-72
2022/12/18 00:29:40;;;;;;;80.03;24.30;;;;;;;-6.85;100.00;96874.88;1035599;28;20018;-72
2022/12/18 00:30:10;;;;;;;82.03;25.30;;;;;;;-6.86;100.00;96875.81;1038958;28;20033;-72
2022/12/18 00:30:41;;;;;;;75.97;24.77;;;;;;;-6.85;100.00;96872.31;1035942;28;20116;-71
2022/12/18 00:31:16;;;;;;;82.80;25.30;;;;;;;-6.85;100.00;96879.16;1026955;28;20635;-72
2022/12/18 00:31:46;;;;;;;72.13;24.75;;;;;;;-6.85;100.00;96872.31;1024017;28;20028;-72
2022/12/18 00:32:17;;;;;;;75.73;25.47;;;;;;;-6.80;100.00;96879.59;1027580;28;20034;-72
2022/12/18 00:32:47;;;;;;;79.07;25.03;;;;;;;-6.79;100.00;96879.47;1029038;28;20038;-71
2022/12/18 00:33:18;;;;;;;84.10;27.47;;;;;;;-6.78;100.00;96883.63;1035328;28;20193;-72
2022/12/18 00:33:48;;;;;;;86.67;26.63;;;;;;;-6.85;100.00;96876.59;1030967;28;20034;-72
2022/12/18 00:34:19;;;;;;;85.13;28.43;;;;;;;-6.84;100.00;96883.31;1035156;28;20619;-72
2022/12/18 00:34:49;;;;;;;74.27;26.00;;;;;;;-6.80;100.00;96882.16;1039422;28;20103;-72
2022/12/18 00:35:20;;;;;;;89.33;27.27;;;;;;;-6.83;100.00;96887.50;1039154;28;20076;-72
2022/12/18 00:35:50;;;;;;;76.17;25.87;;;;;;;-6.81;100.00;96888.16;1034596;28;20545;-71
2022/12/18 00:36:23;;;;;;;81.87;27.00;;;;;;;-6.77;100.00;96889.53;1026875;28;20039;-73
2022/12/18 00:36:54;;;;;;;85.28;27.17;;;;;;;-6.76;100.00;96889.41;1030765;28;20422;-72
2022/12/18 00:37:24;;;;;;;84.27;25.63;;;;;;;-6.79;100.00;96888.88;1027597;28;20027;-72
2022/12/18 00:37:55;;;;;;;88.63;25.30;;;;;;;-6.79;100.00;96888.88;1023552;28;20567;-72
2022/12/18 00:38:25;;;;;;;77.77;24.90;;;;;;;-6.80;100.00;96889.81;1030872;28;20027;-72
2022/12/18 00:38:56;;;;;;;80.03;26.00;;;;;;;-6.81;100.00;96893.28;1031320;28;20113;-72
2022/12/18 00:39:26;;;;;;;76.60;24.83;;;;;;;-6.80;100.00;96890.63;1027117;28;20072;-72
2022/12/18 00:39:57;;;;;;;76.47;24.97;;;;;;;-6.80;100.00;96900.00;1023338;28;20266;-72
2022/12/18 00:40:27;;;;;;;83.20;25.50;;;;;;;-6.80;100.00;96900.00;1023117;28;20023;-71
2022/12/18 00:40:58;;;;;;;73.87;23.90;;;;;;;-6.84;100.00;96899.47;1027182;28;20634;-72
2022/12/18 00:42:59;;;;;;;73.78;23.45;;;;;;;-6.86;100.00;96895.41;1037661;28;20033;-73
2022/12/18 00:43:11;;;;;;;86.68;24.40;;;;;;;-6.84;100.00;96903.72;1027474;28;20036;-73
2022/12/18 00:43:41;;;;;;;81.10;24.27;;;;;;;-6.89;100.00;96892.16;1039138;28;20021;-72
2022/12/18 00:44:13;;;;;;;78.97;24.83;;;;;;;-6.84;100.00;96903.72;1035314;28;20017;-72
2022/12/18 00:44:44;;;;;;;81.75;25.90;;;;;;;-6.81;100.00;96906.03;1026908;28;20030;-72
2022/12/18 00:45:14;;;;;;;85.20;27.20;;;;;;;-6.82;100.00;96906.97;1026843;28;20038;-72
2022/12/18 00:45:45;;;;;;;80.63;26.23;;;;;;;-6.99;100.00;96882.84;1028408;28;20054;-73
2022/12/18 00:46:15;;;;;;;87.80;25.77;;;;;;;-6.84;100.00;96899.47;1027017;28;20038;-71
2022/12/18 00:46:46;;;;;;;79.43;23.73;;;;;;;-6.84;100.00;96909.66;1022938;28;20540;-72
2022/12/18 00:47:16;;;;;;;81.47;25.90;;;;;;;-6.83;100.00;96902.81;1026727;28;20023;-71
2022/12/18 00:47:47;;;;;;;77.27;25.53;;;;;;;-6.80;100.00;96900.00;1023155;28;20028;-73
2022/12/18 00:48:17;;;;;;;96.13;27.63;;;;;;;-6.83;100.00;96906.16;1023428;28;20023;-72
2022/12/18 00:48:48;;;;;;;97.63;26.90;;;;;;;-6.84;100.00;96899.47;1022955;28;20060;-71
2022/12/18 00:49:18;;;;;;;79.87;26.40;;;;;;;-6.82;100.00;96901.88;1034039;28;20030;-73
2022/12/18 00:49:49;;;;;;;89.33;27.43;;;;;;;-6.80;100.00;96900.00;1027153;28;20046;-73
2022/12/18 00:50:20;;;;;;;97.53;26.87;;;;;;;-6.80;100.00;96905.13;1023025;28;20034;-72
2022/12/18 00:50:50;;;;;;;91.60;26.87;;;;;;;-6.82;100.00;96894.22;1026972;28;20381;-72
2022/12/18 00:51:21;;;;;;;86.63;26.77;;;;;;;-6.77;100.00;96902.28;1023431;28;20026;-72
2022/12/18 00:51:51;;;;;;;85.80;27.33;;;;;;;-6.77;100.00;96902.28;1030816;28;20514;-73
2022/12/18 00:52:22;;;;;;;89.43;27.37;;;;;;;-6.87;100.00;96899.72;1031168;28;20376;-71
2022/12/18 00:52:52;;;;;;;79.23;26.37;;;;;;;-6.90;100.00;96905.06;1030844;28;20049;-72
2022/12/18 00:53:23;;;;;;;86.27;26.23;;;;;;;-6.95;100.00;96902.88;1030970;28;20030;-72
2022/12/18 00:53:53;;;;;;;90.13;28.23;;;;;;;-6.97;100.00;96901.38;1027102;28;20114;-72
2022/12/18 00:54:24;;;;;;;90.43;26.93;;;;;;;-6.89;100.00;96899.81;1026915;28;20027;-71
2022/12/18 00:54:54;;;;;;;93.57;29.90;;;;;;;-6.88;100.00;96908.28;1027214;28;20100;-71
2022/12/18 00:55:25;;;;;;;87.33;26.47;;;;;;;-6.86;100.00;96910.72;1026956;28;20035;-72
2022/12/18 00:55:55;;;;;;;86.03;26.50;;;;;;;-6.85;100.00;96912.31;1029526;28;20031;-73
2022/12/18 00:56:26;;;;;;;87.03;26.90;;;;;;;-6.85;100.00;96912.31;1039481;28;20533;-72
2022/12/18 00:56:56;;;;;;;78.53;27.47;;;;;;;-6.85;100.00;96914.88;1043134;28;20036;-72
2022/12/18 00:57:26;;;;;;;92.20;27.73;;;;;;;-6.86;100.00;96911.53;1034634;28;20650;-72
2022/12/18 00:57:57;;;;;;;83.27;26.77;;;;;;;-6.90;100.00;96916.06;1035336;28;20073;-72
2022/12/18 00:58:27;;;;;;;89.50;27.20;;;;;;;-6.89;100.00;96917.69;1039128;28;20056;-70
2022/12/18 00:58:58;;;;;;;92.83;27.03;;;;;;;-6.95;100.00;96902.88;1039645;28;20033;-72
2022/12/18 00:59:30;;;;;;;81.83;26.70;;;;;;;-6.90;100.00;96918.63;1034552;28;20129;-70
2022/12/18 01:00:00;;;;;;;83.72;26.92;;;;;;;-6.93;100.00;96916.31;1026994;28;20026;-71
2022/12/18 01:00:31;;;;;;;82.47;25.20;;;;;;;-6.92;100.00;96917.91;1031132;28;20027;-72
2022/12/18 01:01:04;;;;;;;80.47;25.07;;;;;;;-6.91;100.00;96916.19;1027006;28;20022;-72
2022/12/18 01:01:34;;;;;;;94.32;26.60;;;;;;;-6.86;100.00;96915.81;1030789;28;20113;-72
2022/12/18 01:02:05;;;;;;;77.80;25.83;;;;;;;-6.87;100.00;96920.13;1039348;28;20466;-71
2022/12/18 01:02:35;;;;;;;78.47;25.13;;;;;;;-6.91;100.00;96919.56;1026705;28;20122;-71
2022/12/18 01:03:05;;;;;;;74.90;24.20;;;;;;;-6.96;100.00;96910.66;1031154;28;20026;-72
2022/12/18 01:03:36;;;;;;;66.93;22.23;;;;;;;-6.93;100.00;96921.41;1030730;28;20225;-71
2022/12/18 01:04:06;;;;;;;70.47;21.10;;;;;;;-6.98;100.00;96915.84;1031118;28;20014;-72
2022/12/18 01:04:37;;;;;;;78.97;22.93;;;;;;;-6.98;100.00;96912.50;1027902;28;20026;-73
2022/12/18 01:05:09;;;;;;;73.77;23.70;;;;;;;-6.98;100.00;96917.59;1022760;29;20114;-72
2022/12/18 01:05:40;;;;;;;75.63;24.13;;;;;;;-7.00;100.00;96909.28;1026165;28;20712;-71
2022/12/18 01:06:11;;;;;;;76.13;23.27;;;;;;;-7.03;100.00;96920.53;1026903;28;20026;-72
2022/12/18 01:06:42;;;;;;;79.75;22.98;;;;;;;-7.03;100.00;96915.44;1026878;28;20114;-72
2022/12/18 01:07:12;;;;;;;73.83;21.93;;;;;;;-7.07;100.00;96916.63;1022841;29;20070;-72
2022/12/18 01:07:43;;;;;;;71.67;21.47;;;;;;;-7.04;100.00;96923.19;1018874;28;20035;-71
2022/12/18 01:08:13;;;;;;;61.73;20.37;;;;;;;-7.07;100.00;96913.28;1027019;28;20083;-72
2022/12/18 01:08:44;;;;;;;72.77;20.73;;;;;;;-7.14;100.00;96907.84;1027249;28;20023;-72
2022/12/18 01:09:14;;;;;;;81.50;22.60;;;;;;;-7.11;100.00;96922.88;1018791;28;20560;-72
2022/12/18 01:09:45;;;;;;;79.87;23.10;;;;;;;-7.14;100.00;96918.06;1029819;28;20048;-71
2022/12/18 01:10:15;;;;;;;75.60;22.50;;;;;;;-7.27;100.00;96902.13;1031350;28;20077;-72
2022/12/18 01:10:46;;;;;;;73.07;23.23;;;;;;;-7.16;100.00;96923.25;1027189;28;20023;-71
2022/12/18 01:11:17;;;;;;;76.60;23.67;;;;;;;-7.23;100.00;96908.59;1031023;28;20022;-72
2022/12/18 01:11:48;;;;;;;76.10;23.85;;;;;;;-7.14;100.00;96928.25;1026647;28;20015;-72
2022/12/18 01:12:18;;;;;;;81.97;23.20;;;;;;;-7.17;100.00;96919.09;1027120;28;20027;-72
2022/12/18 01:12:49;;;;;;;83.93;22.60;;;;;;;-7.17;100.00;96924.19;1027248;28;20031;-72
2022/12/18 01:13:19;;;;;;;73.57;23.97;;;;;;;-7.16;100.00;96919.91;1031170;28;20037;-72
2022/12/18 01:13:53;;;;;;;72.80;22.57;;;;;;;-7.21;100.00;96907.53;1034765;28;20080;-71
2022/12/18 01:14:23;;;;;;;73.75;23.40;;;;;;;-7.17;100.00;96920.84;1035897;28;20030;-72
2022/12/18 01:14:54;;;;;;;77.97;23.37;;;;;;;-7.21;100.00;96917.75;1039019;28;20414;-73
2022/12/18 01:15:24;;;;;;;79.50;24.57;;;;;;;-7.19;100.00;96915.06;1031686;28;20022;-72
2022/12/18 01:15:55;;;;;;;79.00;23.37;;;;;;;-7.21;100.00;96915.19;1030301;28;20057;-72
2022/12/18 01:16:25;;;;;;;74.53;22.73;;;;;;;-7.20;100.00;96916.78;1034883;28;20026;-71
2022/12/18 01:16:56;;;;;;;80.67;24.03;;;;;;;-7.17;100.00;96916.56;1031058;28;20026;-72
2022/12/18 01:17:26;;;;;;;73.37;22.27;;;;;;;-7.16;100.00;96923.25;1030822;28;20546;-72
2022/12/18 01:17:57;;;;;;;84.23;26.03;;;;;;;-7.16;100.00;96920.72;1034715;28;20033;-72
2022/12/18 01:18:27;;;;;;;82.87;24.83;;;;;;;-7.13;100.00;96924.75;1027277;28;20121;-72
2022/12/18 01:18:57;;;;;;;75.87;24.43;;;;;;;-7.17;100.00;96919.09;1023182;28;20023;-72
2022/12/18 01:19:28;;;;;;;85.00;24.40;;;;;;;-7.22;100.00;96920.38;1023198;28;20027;-71
2022/12/18 01:19:58;;;;;;;82.07;23.10;;;;;;;-7.22;100.00;96917.84;1022997;28;20548;-72
2022/12/18 01:20:29;;;;;;;68.50;24.00;;;;;;;-7.23;100.00;96923.88;1026711;28;20143;-72
2022/12/18 01:20:59;;;;;;;84.03;24.73;;;;;;;-7.26;100.00;96919.03;1033496;28;20030;-72
2022/12/18 01:21:30;;;;;;;82.80;24.43;;;;;;;-7.24;100.00;96919.69;1034806;28;20083;-72
2022/12/18 01:22:00;;;;;;;85.37;25.73;;;;;;;-7.28;100.00;96920.88;1035056;28;20423;-72
2022/12/18 01:22:34;;;;;;;82.80;24.37;;;;;;;-7.23;100.00;96921.34;1034961;28;20026;-74
2022/12/18 01:23:04;;;;;;;79.13;23.98;;;;;;;-7.23;100.00;96923.88;1040016;28;20060;-72
2022/12/18 01:23:35;;;;;;;78.97;24.67;;;;;;;-7.26;100.00;96922.38;1043440;28;20460;-73
2022/12/18 01:24:05;;;;;;;82.83;24.47;;;;;;;-7.27;100.00;96919.97;1039856;28;20050;-73
2022/12/18 01:24:36;;;;;;;81.77;24.50;;;;;;;-7.30;100.00;96922.75;1035007;28;20033;-73
2022/12/18 01:25:07;;;;;;;71.67;21.60;;;;;;;-7.36;100.00;96917.19;1031081;28;20777;-74
2022/12/18 01:25:38;;;;;;;74.83;23.53;;;;;;;-7.37;100.00;96914.78;1034609;28;20022;-75
2022/12/18 01:26:10;;;;;;;80.20;24.37;;;;;;;-7.31;100.00;96926.22;1029538;28;20022;-75
2022/12/18 01:26:40;;;;;;;80.28;25.35;;;;;;;-7.31;100.00;96921.13;1023977;28;20460;-72
2022/12/18 01:27:11;;;;;;;78.20;23.80;;;;;;;-7.30;100.00;96921.00;1023296;28;20020;-72
2022/12/18 01:27:41;;;;;;;82.90;25.33;;;;;;;-7.33;100.00;96912.81;1031262;28;20014;-72
2022/12/18 01:28:12;;;;;;;77.00;23.67;;;;;;;-7.37;100.00;96913.03;1022688;28;20019;-72
2022/12/18 01:28:43;;;;;;;89.97;25.67;;;;;;;-7.31;100.00;96921.13;1022744;29;20039;-73
2022/12/18 01:29:14;;;;;;;75.40;23.73;;;;;;;-7.25;100.00;96923.19;1027322;28;20475;-72
2022/12/18 01:29:44;;;;;;;85.20;24.93;;;;;;;-7.28;100.00;96915.78;1027054;28;20023;-73
2022/12/18 01:30:15;;;;;;;87.17;27.10;;;;;;;-7.25;100.00;96921.44;1026844;28;20014;-72
2022/12/18 01:30:45;;;;;;;87.60;26.57;;;;;;;-7.30;100.00;96912.56;1023008;29;20015;-73
2022/12/18 01:31:20;;;;;;;84.57;25.37;;;;;;;-7.29;100.00;96919.25;1018873;29;20024;-72
2022/12/18 01:31:51;;;;;;;71.88;24.02;;;;;;;-7.29;100.00;96921.81;1028486;28;20015;-73
2022/12/18 01:32:21;;;;;;;90.93;24.47;;;;;;;-7.50;100.00;96893.75;1032319;28;20022;-72
2022/12/18 01:32:52;;;;;;;82.77;25.47;;;;;;;-7.37;100.00;96923.25;1034576;28;20198;-72
2022/12/18 01:33:22;;;;;;;86.17;26.30;;;;;;;-7.37;100.00;96928.34;1030853;28;20030;-72
2022/12/18 01:33:53;;;;;;;75.37;22.70;;;;;;;-7.43;100.00;96921.16;1026709;28;20090;-72
2022/12/18 01:34:23;;;;;;;95.73;25.53;;;;;;;-7.37;100.00;96923.25;1027095;28;20485;-72
2022/12/18 01:34:54;;;;;;;97.10;28.30;;;;;;;-7.38;100.00;96921.63;1030880;28;20017;-72
2022/12/18 01:35:24;;;;;;;83.70;25.37;;;;;;;-7.37;100.00;96928.34;1034797;28;20014;-73
2022/12/18 01:35:55;;;;;;;84.13;26.37;;;;;;;-7.37;100.00;96930.88;1034723;28;20026;-72
2022/12/18 01:36:33;;;;;;;87.00;24.73;;;;;;;-7.42;100.00;96925.31;1035134;28;20018;-72
2022/12/18 01:37:04;;;;;;;89.70;26.38;;;;;;;-7.42;100.00;96927.88;1030687;28;20502;-72
2022/12/18 01:37:35;;;;;;;89.40;26.48;;;;;;;-7.42;100.00;96927.88;1031552;28;20011;-72
2022/12/18 01:38:05;;;;;;;89.03;25.87;;;;;;;-7.38;100.00;96936.94;1019458;29;20019;-72
2022/12/18 01:38:35;;;;;;;93.10;26.83;;;;;;;-7.40;100.00;96927.78;1029134;28;20031;-72
2022/12/18 01:39:15;;;;;;;89.30;25.93;;;;;;;-7.38;100.00;96933.53;1035301;28;20033;-72
2022/12/18 01:39:45;;;;;;;85.80;25.27;;;;;;;-7.40;100.00;96932.88;1031175;28;20361;-72
2022/12/18 01:40:16;;;;;;;90.33;26.80;;;;;;;-7.41;100.00;96937.16;1034081;28;20155;-72
2022/12/18 01:40:46;;;;;;;92.17;26.50;;;;;;;-7.38;100.00;96942.03;1029687;28;20050;-72
2022/12/18 01:41:19;;;;;;;91.37;27.27;;;;;;;-7.42;100.00;96938.06;1023217;28;20030;-71
2022/12/18 01:42:01;;;;;;;84.55;25.48;;;;;;;-7.42;100.00;96939.81;1025952;28;20050;-72
2022/12/18 01:42:31;;;;;;;88.55;28.27;;;;;;;-7.39;100.00;96935.28;1032774;28;20097;-71
2022/12/18 01:43:02;;;;;;;90.90;28.60;;;;;;;-7.40;100.00;96932.88;1028724;28;20089;-72
2022/12/18 01:43:54;;;;;;;82.03;24.27;;;;;;;-7.40;100.00;96938.78;1024317;28;20468;-72
2022/12/18 01:45:02;;;;;;;80.25;25.77;;;;;;;-7.40;100.00;96937.97;1027153;28;20447;-72
2022/12/18 01:45:33;;;;;;;78.43;24.77;;;;;;;-7.39;100.00;96939.56;1033993;28;20018;-72
2022/12/18 01:46:03;;;;;;;79.40;24.93;;;;;;;-7.49;100.00;96936.94;1031510;28;20022;-72
2022/12/18 01:46:34;;;;;;;80.30;24.37;;;;;;;-7.43;100.00;96943.31;1034849;28;20025;-72
2022/12/18 01:47:04;;;;;;;89.47;25.77;;;;;;;-7.49;100.00;96933.59;1034588;28;20789;-72
2022/12/18 01:47:49;;;;;;;86.17;26.63;;;;;;;-7.46;100.00;96943.53;1030050;28;20018;-72
2022/12/18 01:48:19;;;;;;;89.82;26.80;;;;;;;-7.47;100.00;96940.19;1022666;29;20119;-72
2022/12/18 01:48:53;;;;;;;93.73;29.47;;;;;;;-7.50;100.00;96939.63;1022412;28;20071;-72
2022/12/18 01:49:23;;;;;;;86.95;27.75;;;;;;;-7.47;100.00;96942.75;1030190;28;20085;-72
2022/12/18 01:49:54;;;;;;;99.23;30.00;;;;;;;-7.52;100.00;96934.63;1030567;28;20110;-72
2022/12/18 01:50:41;;;;;;;107.00;27.10;;;;;;;-7.47;100.00;96936.84;1026485;28;20704;-71
2022/12/18 01:51:11;;;;;;;83.35;26.63;;;;;;;-7.45;100.00;96940.06;1030584;28;20026;-73
2022/12/18 01:51:42;;;;;;;85.70;26.73;;;;;;;-7.43;100.00;96939.00;1034305;28;20026;-72
2022/12/18 01:52:12;;;;;;;92.57;27.10;;;;;;;-7.52;100.00;96928.72;1026696;28;20050;-72
2022/12/18 01:52:44;;;;;;;102.67;26.73;;;;;;;-7.48;100.00;96932.66;1030252;28;20015;-72
2022/12/18 01:53:17;;;;;;;96.32;27.35;;;;;;;-7.47;100.00;96930.00;1026189;28;20038;-72
2022/12/18 01:53:47;;;;;;;106.10;29.17;;;;;;;-7.46;100.00;96934.16;1030575;28;20503;-70
2022/12/18 01:54:18;;;;;;;96.07;27.23;;;;;;;-7.44;100.00;96931.50;1034478;28;20104;-72
2022/12/18 01:54:48;;;;;;;97.80;27.10;;;;;;;-7.49;100.00;96926.75;1030381;28;20524;-71
2022/12/18 01:55:21;;;;;;;84.13;24.03;;;;;;;-7.43;100.00;96935.66;1026772;28;20027;-72
2022/12/18 01:55:52;;;;;;;80.70;25.40;;;;;;;-7.47;100.00;96932.53;1029634;28;20749;-72
2022/12/18 01:56:23;;;;;;;90.43;24.35;;;;;;;-7.42;100.00;96930.44;1031658;28;20026;-72
2022/12/18 01:56:53;;;;;;;88.40;26.53;;;;;;;-7.43;100.00;96928.81;1031083;28;20089;-72
2022/12/18 01:57:24;;;;;;;87.97;24.97;;;;;;;-7.40;100.00;96938.78;1031246;28;20031;-72
2022/12/18 01:57:57;;;;;;;82.27;26.63;;;;;;;-7.48;100.00;96919.91;1034202;28;20319;-72
2022/12/18 01:58:33;;;;;;;86.20;25.85;;;;;;;-7.44;100.00;96939.94;1030667;28;20026;-71
2022/12/18 01:59:04;;;;;;;82.65;24.88;;;;;;;-7.51;100.00;96935.44;1030982;28;20089;-72
2022/12/18 01:59:35;;;;;;;95.18;27.25;;;;;;;-7.49;100.00;96936.94;1034665;28;20032;-73
2022/12/18 02:00:09;;;;;;;84.57;24.60;;;;;;;-7.46;100.00;96934.16;1022699;29;20054;-73
2022/12/18 02:00:39;;;;;;;85.10;27.02;;;;;;;-7.47;100.00;96942.75;1023750;28;20019;-72
2022/12/18 02:01:10;;;;;;;100.77;25.50;;;;;;;-7.53;100.00;96940.66;1023899;28;20033;-73
2022/12/18 02:01:40;;;;;;;83.17;25.83;;;;;;;-7.53;100.00;96937.31;1028400;28;20033;-72
2022/12/18 02:02:11;;;;;;;82.50;26.57;;;;;;;-7.49;100.00;96939.50;1031045;28;20086;-72
2022/12/18 02:02:42;;;;;;;82.33;25.63;;;;;;;-7.53;100.00;96917.72;1022529;29;20074;-72
2022/12/18 02:03:12;;;;;;;86.67;24.43;;;;;;;-7.47;100.00;96937.63;1022973;29;20015;-72
2022/12/18 02:03:43;;;;;;;79.37;24.03;;;;;;;-7.48;100.00;96925.00;1022707;29;20374;-72
2022/12/18 02:04:26;;;;;;;84.73;24.93;;;;;;;-7.44;100.00;96939.94;1022846;28;20029;-72
2022/12/18 02:04:56;;;;;;;77.65;25.38;;;;;;;-7.41;100.00;96933.78;1030296;28;20023;-71
2022/12/18 02:05:36;;;;;;;90.40;24.87;;;;;;;-7.41;100.00;96936.31;1030461;28;20194;-73
2022/12/18 02:06:16;;;;;;;88.10;24.88;;;;;;;-7.45;100.00;96940.84;1026633;28;20057;-72
2022/12/18 02:06:46;;;;;;;73.65;21.83;;;;;;;-7.53;100.00;96927.13;1026579;28;20062;-72
2022/12/18 02:07:37;;;;;;;86.47;23.97;;;;;;;-7.59;100.00;96933.50;1022635;29;20031;-72
2022/12/18 02:08:28;;;;;;;70.35;23.45;;;;;;;-7.56;100.00;96932.44;1034496;28;20029;-71
2022/12/18 02:09:13;;;;;;;72.93;22.70;;;;;;;-7.61;100.00;96930.28;1032365;28;20456;-72
2022/12/18 02:09:52;;;;;;;70.50;21.17;;;;;;;-7.72;100.00;96918.34;1033061;28;20026;-72
2022/12/18 02:10:32;;;;;;;76.07;21.88;;;;;;;-7.71;100.00;96921.69;1030634;28;20446;-72
2022/12/18 02:11:10;;;;;;;76.25;23.40;;;;;;;-7.68;100.00;96926.56;1030640;28;20026;-73
2022/12/18 02:11:53;;;;;;;77.45;23.33;;;;;;;-7.66;100.00;96928.06;1030931;28;20022;-71
2022/12/18 02:12:24;;;;;;;73.13;23.38;;;;;;;-7.69;100.00;96927.50;1030403;28;20117;-71
2022/12/18 02:13:06;;;;;;;82.15;22.40;;;;;;;-7.71;100.00;96931.91;1034521;28;20100;-71
2022/12/18 02:13:50;;;;;;;71.65;23.55;;;;;;;-7.69;100.00;96933.41;1034572;28;20361;-71
2022/12/18 02:14:42;;;;;;;70.97;20.63;;;;;;;-7.79;100.00;96934.25;1034039;28;20057;-72
2022/12/18 02:15:17;;;;;;;77.57;21.45;;;;;;;-7.76;100.00;96931.47;1031277;28;20026;-72
2022/12/18 02:16:05;;;;;;;81.53;24.85;;;;;;;-7.72;100.00;96932.84;1029730;28;20018;-70
2022/12/18 02:16:44;;;;;;;68.43;19.73;;;;;;;-7.72;100.00;96932.84;1034411;28;20030;-72
2022/12/18 02:17:26;;;;;;;74.05;23.95;;;;;;;-7.76;100.00;96932.25;1030610;28;20038;-72
2022/12/18 02:17:58;;;;;;;73.28;21.80;;;;;;;-7.75;100.00;96935.63;1034441;28;20537;-72
2022/12/18 02:18:36;;;;;;;82.18;22.80;;;;;;;-7.77;100.00;96934.94;1022516;29;20592;-72
2022/12/18 02:19:28;;;;;;;72.93;22.10;;;;;;;-7.82;100.00;96928.44;1026483;28;20019;-71
2022/12/18 02:20:13;;;;;;;73.40;22.00;;;;;;;-7.76;100.00;96923.81;1022676;29;20027;-72
2022/12/18 02:20:59;;;;;;;70.93;21.50;;;;;;;-7.76;100.00;96936.56;1027813;28;20062;-72
2022/12/18 02:21:50;;;;;;;59.22;20.17;;;;;;;-7.80;100.00;96925.78;1035206;28;20030;-74
2022/12/18 02:22:59;;;;;;;78.38;22.33;;;;;;;-7.78;100.00;96934.09;1040360;28;20084;-72
2022/12/18 02:23:35;;;;;;;61.17;21.35;;;;;;;-7.77;100.00;96924.75;1030497;28;20738;-72
2022/12/18 02:24:38;;;;;;;87.15;26.50;;;;;;;-7.71;100.00;96924.25;1032931;28;20014;-72
2022/12/18 02:25:29;;;;;;;73.50;21.33;;;;;;;-7.72;100.00;96922.63;1031782;28;20066;-72
2022/12/18 02:26:24;;;;;;;72.38;22.60;;;;;;;-7.77;100.00;96912.81;1039127;28;20021;-71
2022/12/18 02:26:59;;;;;;;86.20;22.45;;;;;;;-7.79;100.00;96909.56;1030663;28;20507;-71
2022/12/18 02:27:30;;;;;;;79.95;22.73;;;;;;;-7.79;100.00;96922.31;1022987;29;20077;-72
2022/12/18 02:28:02;;;;;;;69.67;22.93;;;;;;;-7.79;100.00;96911.31;1027176;28;20139;-72
2022/12/18 02:28:41;;;;;;;83.15;23.35;;;;;;;-7.75;100.00;96922.88;1019091;29;20027;-72
2022/12/18 02:29:16;;;;;;;80.95;24.58;;;;;;;-7.72;100.00;96918.34;1023413;29;20037;-71
2022/12/18 02:29:52;;;;;;;74.30;21.50;;;;;;;-7.71;100.00;96914.06;1026820;28;20134;-72
2022/12/18 02:30:23;;;;;;;77.53;23.02;;;;;;;-7.70;100.00;96918.25;1019470;29;20024;-73
2022/12/18 02:30:53;;;;;;;84.40;23.20;;;;;;;-7.74;100.00;96915.13;1022858;29;20027;-72